Time;durP1;ratioP1;P1;durP2;ratioP2;P2;SDS_P1;SDS_P2;PMS_P1;PMS_P2;Temp;Humidity;BMP_temperature;BMP_pressure;BME280_temperature;BME280_humidity;BME280_pressure;Samples;Min_cycle;Max_cycle;Signal;HPM_P1;HPM_P2
2022/03/19 00:00:19;;;;;;;59.20;22.92;;;;;;;-1.80;59.87;101861.34;8470951;27;20044;-68
2022/03/19 00:04:39;;;;;;;55.67;21.13;;;;;;;-1.80;59.61;101850.75;8477543;27;20055;-70
2022/03/19 00:08:41;;;;;;;52.75;20.52;;;;;;;-1.84;60.16;101854.69;8484481;27;20054;-68
2022/03/19 00:12:41;;;;;;;63.97;22.95;;;;;;;-1.89;59.70;101852.53;8464143;27;20047;-70
2022/03/19 00:16:43;;;;;;;53.88;21.40;;;;;;;-1.91;59.72;101853.69;8462769;28;20050;-68
2022/03/19 00:20:43;;;;;;;58.17;22.50;;;;;;;-2.00;59.98;101854.63;8484658;27;20047;-70
2022/03/19 00:24:44;;;;;;;54.75;22.23;;;;;;;-2.01;60.03;101853.00;8496278;27;20047;-69
2022/03/19 00:28:46;;;;;;;58.92;22.17;;;;;;;-2.03;60.38;101854.97;8493267;27;20041;-69
2022/03/19 00:32:47;;;;;;;53.22;21.30;;;;;;;-2.06;60.28;101852.66;8476785;27;20051;-70
2022/03/19 00:36:49;;;;;;;51.50;21.60;;;;;;;-2.16;60.29;101845.66;8494564;27;20126;-70
2022/03/19 00:40:51;;;;;;;60.08;23.75;;;;;;;-2.23;60.87;101849.09;8486537;27;20066;-70
2022/03/19 00:44:52;;;;;;;63.33;23.98;;;;;;;-2.22;60.78;101840.97;8461910;27;20051;-70
2022/03/19 00:48:53;;;;;;;73.50;24.90;;;;;;;-2.21;60.79;101832.06;8461726;28;20127;-70
2022/03/19 00:52:54;;;;;;;86.10;27.42;;;;;;;-2.21;60.73;101836.53;8483761;27;20047;-70
2022/03/19 00:56:55;;;;;;;71.22;25.30;;;;;;;-2.24;60.80;101832.38;8435496;27;20054;-68
2022/03/19 01:00:56;;;;;;;77.78;27.85;;;;;;;-2.26;61.11;101829.06;8483772;27;20126;-69
2022/03/19 01:04:57;;;;;;;74.18;27.50;;;;;;;-2.27;61.47;101837.97;8476108;27;20052;-69
2022/03/19 01:08:58;;;;;;;75.10;27.88;;;;;;;-2.27;61.39;101826.56;8469975;27;20162;-69
2022/03/19 01:12:59;;;;;;;89.05;29.73;;;;;;;-2.23;61.49;101823.47;8476442;27;20051;-70
2022/03/19 01:16:59;;;;;;;78.72;28.30;;;;;;;-2.18;61.29;101831.75;8466795;27;20122;-70
2022/03/19 01:21:00;;;;;;;80.28;27.48;;;;;;;-2.10;61.24;101832.75;8477146;27;20499;-70
2022/03/19 01:25:04;;;;;;;73.88;28.83;;;;;;;-2.05;61.39;101830.47;8488705;27;20491;-68
2022/03/19 01:29:05;;;;;;;79.13;29.42;;;;;;;-2.10;61.72;101823.00;8491017;27;20047;-68
2022/03/19 01:33:06;;;;;;;83.10;29.73;;;;;;;-2.03;61.91;101817.91;8460395;28;20411;-69
2022/03/19 01:37:07;;;;;;;78.82;29.13;;;;;;;-1.94;62.10;101822.22;8468678;27;20035;-68
2022/03/19 01:41:08;;;;;;;84.15;31.83;;;;;;;-1.85;61.84;101821.28;8483215;27;20058;-68
2022/03/19 01:45:13;;;;;;;76.93;30.25;;;;;;;-1.81;61.68;101814.66;8460456;28;20044;-68
2022/03/19 01:49:14;;;;;;;84.60;31.42;;;;;;;-1.78;61.61;101816.97;8486366;28;20040;-69
2022/03/19 01:53:15;;;;;;;85.93;32.00;;;;;;;-1.74;61.77;101813.00;8466389;27;20126;-69
2022/03/19 01:57:21;;;;;;;89.72;32.63;;;;;;;-1.70;61.82;101814.34;8492938;27;20426;-69
2022/03/19 02:01:22;;;;;;;79.55;30.20;;;;;;;-1.68;61.85;101812.34;8474060;27;20126;-69
2022/03/19 02:05:23;;;;;;;85.25;30.98;;;;;;;-1.66;62.22;101805.06;8469275;27;20044;-68
2022/03/19 02:09:25;;;;;;;86.93;32.83;;;;;;;-1.60;62.14;101804.44;8458747;28;20070;-71
2022/03/19 02:13:25;;;;;;;88.00;32.00;;;;;;;-1.60;62.47;101793.84;8448105;27;20043;-69
2022/03/19 02:17:26;;;;;;;88.25;35.30;;;;;;;-1.60;62.42;101793.84;8459832;28;20040;-69
2022/03/19 02:21:38;;;;;;;92.38;34.08;;;;;;;-1.62;62.37;101795.81;8470882;27;20149;-69
2022/03/19 02:25:39;;;;;;;94.07;32.35;;;;;;;-1.60;62.62;101793.84;8478645;27;20060;-70
2022/03/19 02:29:40;;;;;;;98.70;32.90;;;;;;;-1.63;62.67;101794.13;8465055;27;20414;-68
2022/03/19 02:33:41;;;;;;;89.55;34.25;;;;;;;-1.61;63.23;101786.88;8498894;27;20047;-69
2022/03/19 02:37:48;;;;;;;102.05;37.45;;;;;;;-1.55;63.57;101788.88;8471839;27;20142;-68
2022/03/19 02:41:49;;;;;;;94.57;35.03;;;;;;;-1.45;63.25;101792.19;8427113;28;20051;-68
2022/03/19 02:45:50;;;;;;;109.03;37.05;;;;;;;-1.41;63.10;101796.16;8427351;28;20059;-69
2022/03/19 02:49:51;;;;;;;97.13;36.55;;;;;;;-1.33;62.63;101790.88;8427837;28;20543;-69
2022/03/19 02:53:52;;;;;;;90.47;33.40;;;;;;;-1.25;62.80;101791.84;8427432;28;20044;-68
2022/03/19 02:57:54;;;;;;;97.45;34.78;;;;;;;-1.21;62.53;101787.84;8393553;28;20171;-68
2022/03/19 03:02:03;;;;;;;92.47;34.42;;;;;;;-1.21;63.16;101793.16;8410306;28;20048;-68
2022/03/19 03:06:04;;;;;;;95.93;34.75;;;;;;;-1.22;63.50;101791.53;8427453;28;20048;-70
2022/03/19 03:10:06;;;;;;;97.70;34.35;;;;;;;-1.22;63.49;101791.53;8426756;28;20052;-69
2022/03/19 03:14:08;;;;;;;97.72;36.13;;;;;;;-1.19;63.51;101783.22;8441041;27;20373;-69
2022/03/19 03:18:09;;;;;;;112.30;39.08;;;;;;;-1.12;63.47;101789.53;8445616;28;20491;-70
2022/03/19 03:22:10;;;;;;;107.55;37.10;;;;;;;-1.13;63.33;101785.22;8464636;28;20043;-69
2022/03/19 03:26:11;;;;;;;102.43;36.40;;;;;;;-1.11;63.52;101772.63;8466380;27;20463;-68
2022/03/19 03:30:12;;;;;;;95.90;36.22;;;;;;;-1.12;63.59;101782.41;8497122;27;20043;-68
2022/03/19 03:34:13;;;;;;;98.18;35.83;;;;;;;-1.13;63.89;101785.22;8496236;27;20505;-68
2022/03/19 03:38:14;;;;;;;97.22;35.50;;;;;;;-1.11;63.69;101777.94;8461394;27;20058;-68
2022/03/19 03:42:16;;;;;;;101.03;37.15;;;;;;;-1.07;63.15;101784.56;8478711;27;20126;-69
2022/03/19 03:46:17;;;;;;;115.13;38.85;;;;;;;-1.07;63.07;101773.94;8486237;27;20054;-67
2022/03/19 03:50:20;;;;;;;117.05;40.88;;;;;;;-1.08;63.14;101777.59;8493030;27;20107;-69
2022/03/19 03:54:21;;;;;;;127.88;42.65;;;;;;;-1.07;62.96;101779.25;8469401;27;20058;-69
2022/03/19 03:58:23;;;;;;;114.00;41.80;;;;;;;-1.06;63.69;101775.59;8479232;27;20047;-68
2022/03/19 04:02:24;;;;;;;101.13;40.38;;;;;;;-1.04;63.72;101768.28;8477522;27;20039;-69
2022/03/19 04:06:25;;;;;;;124.10;40.38;;;;;;;-1.04;64.16;101778.91;8477344;27;20059;-68
2022/03/19 04:10:27;;;;;;;104.13;40.45;;;;;;;-1.04;63.93;101768.28;8443836;28;20513;-68
2022/03/19 04:14:28;;;;;;;111.28;39.03;;;;;;;-1.06;63.95;101770.28;8463164;27;20501;-69
2022/03/19 04:18:29;;;;;;;112.90;38.83;;;;;;;-1.08;64.03;101766.97;8461719;27;20040;-69
2022/03/19 04:22:44;;;;;;;95.15;39.30;;;;;;;-1.12;64.29;101773.63;8442880;27;20499;-68
2022/03/19 04:26:45;;;;;;;102.60;38.80;;;;;;;-1.20;64.27;101778.91;8467128;27;20066;-69
2022/03/19 04:30:46;;;;;;;107.10;39.17;;;;;;;-1.33;64.25;101780.25;8460856;27;20104;-69
2022/03/19 04:34:47;;;;;;;108.68;40.17;;;;;;;-1.42;64.13;101775.94;8453221;27;20527;-68
2022/03/19 04:38:48;;;;;;;116.57;41.38;;;;;;;-1.48;64.35;101771.28;8430016;28;20050;-68
2022/03/19 04:42:49;;;;;;;114.55;40.28;;;;;;;-1.52;64.49;101775.28;8445778;27;20051;-68
2022/03/19 04:46:50;;;;;;;113.88;41.30;;;;;;;-1.53;64.72;101778.91;8437026;27;20155;-69
2022/03/19 04:50:51;;;;;;;119.50;42.47;;;;;;;-1.53;64.77;101768.31;8428995;27;20506;-68
2022/03/19 04:54:53;;;;;;;103.63;39.53;;;;;;;-1.53;65.06;101768.31;8429703;28;20040;-69
2022/03/19 04:58:55;;;;;;;111.10;40.55;;;;;;;-1.46;64.67;101774.63;8438235;27;20044;-68
2022/03/19 05:02:56;;;;;;;105.43;38.08;;;;;;;-1.40;64.99;101768.66;8441122;27;20109;-69
2022/03/19 05:06:57;;;;;;;101.32;38.05;;;;;;;-1.29;64.43;101776.28;8433887;28;20408;-68
2022/03/19 05:11:13;;;;;;;98.70;35.92;;;;;;;-1.17;64.19;101768.00;8430467;28;20094;-68
2022/03/19 05:15:16;;;;;;;97.93;34.35;;;;;;;-1.05;63.72;101767.47;8472530;27;20043;-69
2022/03/19 05:19:17;;;;;;;91.90;30.90;;;;;;;-0.94;63.22;101763.63;8494954;27;20054;-70
2022/03/19 05:23:18;;;;;;;78.45;30.75;;;;;;;-0.83;62.87;101770.41;8495292;27;20047;-69
2022/03/19 05:27:19;;;;;;;82.63;30.63;;;;;;;-0.72;62.13;101773.53;8494753;27;20208;-68
2022/03/19 05:31:20;;;;;;;79.45;29.20;;;;;;;-0.61;62.22;101775.81;8489086;27;20057;-69
2022/03/19 05:35:22;;;;;;;79.78;30.00;;;;;;;-0.49;62.31;101769.16;8418918;28;20798;-69
2022/03/19 05:39:23;;;;;;;81.53;28.98;;;;;;;-0.37;61.74;101771.44;8411416;28;20052;-69
2022/03/19 05:43:24;;;;;;;76.05;27.80;;;;;;;-0.25;60.20;101775.34;8425709;28;20472;-70
2022/03/19 05:47:25;;;;;;;66.10;26.40;;;;;;;-0.09;59.00;101781.41;8439458;28;20463;-69
2022/03/19 05:51:26;;;;;;;88.47;27.55;;;;;;;0.09;57.93;101783.81;8456350;28;20048;-70
2022/03/19 05:55:27;;;;;;;74.82;26.65;;;;;;;0.28;56.99;101783.34;8456012;28;20047;-69
2022/03/19 05:59:28;;;;;;;74.57;26.40;;;;;;;0.49;56.11;101787.19;8406632;28;20522;-68
2022/03/19 06:03:29;;;;;;;76.63;25.00;;;;;;;0.70;54.49;101787.34;8438908;28;20049;-68
2022/03/19 06:07:30;;;;;;;66.32;25.50;;;;;;;0.91;54.06;101795.47;8433909;28;20055;-68
2022/03/19 06:11:31;;;;;;;68.05;24.58;;;;;;;1.12;53.37;101795.63;8456432;27;20050;-69
2022/03/19 06:15:32;;;;;;;62.90;23.63;;;;;;;1.36;52.63;101799.03;8486398;27;20126;-70
2022/03/19 06:19:33;;;;;;;65.45;25.15;;;;;;;1.64;50.74;101802.69;8502008;27;20456;-70
2022/03/19 06:23:34;;;;;;;64.00;24.70;;;;;;;1.96;49.88;101796.97;8467906;27;20131;-69
2022/03/19 06:27:35;;;;;;;69.25;24.15;;;;;;;2.26;48.70;101803.06;8497403;27;20066;-69
2022/03/19 06:31:36;;;;;;;63.58;22.98;;;;;;;2.52;47.24;101802.50;8498056;27;20559;-69
2022/03/19 06:40:06;;;;;;;67.55;26.02;;;;;;;2.93;47.18;101806.16;8486533;27;20141;-69
2022/03/19 06:44:07;;;;;;;75.68;28.17;;;;;;;3.17;46.08;101812.13;8468130;27;20062;-69
2022/03/19 06:48:08;;;;;;;71.72;28.10;;;;;;;3.26;45.26;101821.63;8428015;28;20055;-68
2022/03/19 06:52:10;;;;;;;75.78;27.50;;;;;;;3.28;45.04;101815.03;8470513;27;20502;-72
2022/03/19 06:56:12;;;;;;;73.13;26.98;;;;;;;3.23;44.80;101816.66;8459352;27;20415;-70
2022/03/19 07:00:14;;;;;;;71.43;26.73;;;;;;;3.05;45.08;101819.00;8457801;27;20427;-69
2022/03/19 07:04:15;;;;;;;76.47;27.08;;;;;;;2.93;45.63;101822.19;8426924;28;20047;-69
2022/03/19 07:08:16;;;;;;;65.63;25.42;;;;;;;2.76;45.47;101815.47;8430622;28;20134;-68
2022/03/19 07:12:17;;;;;;;64.93;25.17;;;;;;;2.62;45.77;101821.69;8438026;27;20466;-68
2022/03/19 07:16:18;;;;;;;58.42;24.25;;;;;;;2.55;45.64;101823.47;8495107;27;20054;-68
2022/03/19 07:20:19;;;;;;;57.05;20.13;;;;;;;2.64;45.72;101827.69;8471523;27;20043;-72
2022/03/19 07:24:20;;;;;;;51.50;19.33;;;;;;;2.76;45.00;101825.31;8482926;27;20494;-72
2022/03/19 07:28:21;;;;;;;48.42;17.85;;;;;;;2.92;44.14;101820.53;8457320;27;20127;-72
2022/03/19 07:32:22;;;;;;;48.55;17.55;;;;;;;3.03;43.99;101831.69;8471847;27;20089;-70
2022/03/19 07:36:23;;;;;;;45.55;18.23;;;;;;;3.16;43.34;101838.00;8439732;27;20044;-71
2022/03/19 07:44:44;;;;;;;45.05;19.35;;;;;;;3.22;43.82;101841.72;8460044;27;20051;-69
2022/03/19 07:48:45;;;;;;;53.65;20.85;;;;;;;3.28;44.00;101846.28;8454417;28;20054;-69
2022/03/19 07:52:47;;;;;;;49.92;21.05;;;;;;;3.39;43.69;101848.41;8464428;27;20051;-69
2022/03/19 07:56:51;;;;;;;56.30;22.58;;;;;;;3.50;43.84;101845.19;8461507;28;20426;-69
2022/03/19 08:00:52;;;;;;;56.97;22.65;;;;;;;3.60;43.66;101856.34;8462973;28;20047;-70
2022/03/19 08:04:53;;;;;;;57.92;21.85;;;;;;;3.75;43.02;101848.25;8463292;28;20085;-70
2022/03/19 08:08:54;;;;;;;53.25;21.08;;;;;;;3.85;43.15;101847.88;8462972;28;20050;-70
2022/03/19 08:13:02;;;;;;;58.03;20.88;;;;;;;3.99;42.52;101849.59;8463160;28;20043;-70
2022/03/19 08:17:04;;;;;;;;;;;;;;;3.94;42.65;101852.03;8455756;27;20134;-70
2022/03/19 08:21:05;;;;;;;49.88;20.33;;;;;;;4.02;42.98;101854.56;8492717;27;19931;-70
2022/03/19 08:25:07;;;;;;;51.97;19.65;;;;;;;4.15;41.70;101849.25;8456998;27;20078;-70
2022/03/19 08:29:08;;;;;;;45.03;17.77;;;;;;;4.32;39.98;101855.91;8459918;28;20138;-70
2022/03/19 08:33:09;;;;;;;43.33;17.60;;;;;;;4.47;39.75;101853.88;8462925;28;20048;-70
2022/03/19 08:37:13;;;;;;;41.97;17.67;;;;;;;4.60;38.94;101859.25;8463049;27;20086;-70
2022/03/19 08:41:14;;;;;;;44.28;17.08;;;;;;;4.68;38.86;101851.06;8468129;27;20050;-70
2022/03/19 08:45:15;;;;;;;36.20;16.13;;;;;;;4.91;37.90;101860.56;8461397;28;20063;-69
2022/03/19 08:49:16;;;;;;;38.58;16.67;;;;;;;5.03;36.87;101856.22;8442381;28;20083;-70
2022/03/19 08:53:17;;;;;;;32.95;14.60;;;;;;;5.15;35.59;101865.31;8464186;27;20093;-69
2022/03/19 08:57:20;;;;;;;37.65;15.75;;;;;;;5.21;35.85;101867.16;8462038;27;20040;-69
2022/03/19 09:01:30;;;;;;;34.65;15.10;;;;;;;5.36;36.34;101866.94;8489349;27;20839;-69
2022/03/19 09:05:32;;;;;;;37.42;15.23;;;;;;;5.64;35.29;101858.69;8489694;27;20074;-69
2022/03/19 09:09:33;;;;;;;36.03;16.00;;;;;;;5.96;35.12;101871.22;8489167;27;20126;-69
2022/03/19 09:13:34;;;;;;;32.47;13.82;;;;;;;6.05;34.01;101859.22;8490507;27;20047;-69
2022/03/19 09:17:35;;;;;;;35.10;15.32;;;;;;;6.08;34.10;101853.41;8488728;27;20142;-70
2022/03/19 09:21:37;;;;;;;33.70;14.07;;;;;;;6.20;32.67;101867.81;8489687;27;20043;-68
2022/03/19 09:25:38;;;;;;;31.02;15.55;;;;;;;6.13;32.85;101850.94;8489377;27;20059;-69
2022/03/19 09:29:42;;;;;;;33.70;13.73;;;;;;;6.14;32.93;101847.19;8488950;27;20054;-69
2022/03/19 09:33:43;;;;;;;31.77;14.48;;;;;;;6.30;32.84;101854.75;8452621;28;20050;-68
2022/03/19 09:37:44;;;;;;;32.35;12.73;;;;;;;6.48;32.67;101842.50;8488095;27;20057;-69
2022/03/19 09:41:45;;;;;;;32.83;13.80;;;;;;;6.77;32.07;101848.09;8488062;28;20137;-69
2022/03/19 09:45:47;;;;;;;31.35;13.30;;;;;;;7.03;32.04;101848.97;8488844;28;20054;-70
2022/03/19 09:49:49;;;;;;;30.35;12.48;;;;;;;6.96;30.99;101857.06;8468784;28;20051;-70
2022/03/19 09:53:50;;;;;;;25.65;11.82;;;;;;;6.95;30.48;101844.66;8487620;27;20051;-72
2022/03/19 09:57:51;;;;;;;30.55;13.45;;;;;;;6.86;31.03;101856.72;8488476;27;20126;-70
2022/03/19 10:01:52;;;;;;;25.05;13.02;;;;;;;7.02;31.54;101856.19;8489280;28;20047;-69
2022/03/19 10:10:13;;;;;;;;;;;;;;;7.38;31.15;101860.03;8481219;27;20055;-70
2022/03/19 10:14:19;;;;;;;30.27;12.45;;;;;;;7.60;29.78;101853.19;8465068;28;19961;-69
2022/03/19 10:18:30;;;;;;;31.27;14.32;;;;;;;7.61;30.59;101854.84;8465305;28;20044;-69
2022/03/19 10:22:32;;;;;;;30.83;13.70;;;;;;;7.70;30.37;101858.06;8465191;28;20043;-70
2022/03/19 10:26:35;;;;;;;37.35;13.90;;;;;;;7.82;30.49;101851.72;8464865;28;20067;-68
2022/03/19 10:30:38;;;;;;;36.22;15.48;;;;;;;8.07;30.53;101859.72;8443376;28;20459;-69
2022/03/19 10:34:40;;;;;;;26.95;14.05;;;;;;;8.06;28.61;101848.13;8455202;28;20043;-70
2022/03/19 10:38:46;;;;;;;27.90;12.50;;;;;;;8.06;29.15;101856.19;8459623;27;20166;-70
2022/03/19 10:42:47;;;;;;;26.52;13.85;;;;;;;8.14;30.26;101854.25;8461157;28;20127;-69
2022/03/19 10:46:58;;;;;;;34.35;16.67;;;;;;;8.29;29.59;101846.59;8462797;28;20039;-69
2022/03/19 10:51:02;;;;;;;27.95;13.70;;;;;;;8.46;29.96;101847.63;8426717;28;20047;-69
2022/03/19 10:55:04;;;;;;;29.33;13.93;;;;;;;8.48;29.04;101850.94;8426169;28;20405;-68
2022/03/19 10:59:06;;;;;;;36.35;13.48;;;;;;;8.36;29.09;101833.91;8455684;28;20055;-67
2022/03/19 11:03:13;;;;;;;31.55;12.77;;;;;;;8.54;29.37;101838.44;8463526;28;20405;-71
2022/03/19 11:07:17;;;;;;;23.50;11.23;;;;;;;8.71;27.73;101834.88;8461348;28;20516;-70
2022/03/19 11:11:21;;;;;;;26.55;11.23;;;;;;;8.62;28.53;101836.22;8420475;28;20505;-71
2022/03/19 11:15:23;;;;;;;31.08;13.60;;;;;;;8.77;28.58;101827.72;8422412;28;20713;-71
2022/03/19 11:19:24;;;;;;;29.25;13.25;;;;;;;8.70;28.58;101822.44;8403771;28;20044;-70
2022/03/19 11:23:30;;;;;;;33.05;13.93;;;;;;;8.93;29.30;101820.84;8401688;28;20044;-70
2022/03/19 11:27:35;;;;;;;30.08;14.02;;;;;;;9.10;28.87;101822.63;8407721;28;20478;-70
2022/03/19 11:31:36;;;;;;;26.02;13.60;;;;;;;9.20;28.22;101811.28;8424575;28;20044;-71
2022/03/19 11:35:39;;;;;;;33.50;15.30;;;;;;;9.23;28.53;101805.41;8419304;28;20449;-72
2022/03/19 11:40:04;;;;;;;31.00;15.13;;;;;;;9.26;28.73;101799.53;8392474;28;20048;-70
2022/03/19 11:44:25;;;;;;;29.10;14.32;;;;;;;9.31;27.55;101792.38;8428790;28;20058;-71
2022/03/19 11:48:38;;;;;;;34.50;13.18;;;;;;;9.41;27.07;101796.38;8436953;28;20085;-74
2022/03/19 11:52:39;;;;;;;31.63;13.45;;;;;;;9.38;27.74;101786.88;8461280;28;20043;-75
2022/03/19 11:56:44;;;;;;;31.33;14.68;;;;;;;9.27;26.94;101791.22;8459812;28;20078;-81
2022/03/19 12:00:59;;;;;;;34.63;14.20;;;;;;;9.30;26.68;101782.69;8457465;28;20060;-72
2022/03/19 12:05:15;;;;;;;53.15;20.63;;;;;;;9.31;26.35;101786.97;8456947;28;20435;-74
2022/03/19 12:09:16;;;;;;;29.52;14.60;;;;;;;9.58;27.04;101776.53;8459330;28;20067;-74
2022/03/19 12:13:27;;;;;;;29.23;13.25;;;;;;;9.82;26.25;101765.69;8456286;28;20059;-72
2022/03/19 12:17:27;;;;;;;22.88;12.15;;;;;;;9.89;27.34;101772.56;8459569;28;20477;-71
2022/03/19 12:21:33;;;;;;;25.95;12.20;;;;;;;10.00;25.46;101770.91;8460764;28;20047;-75
2022/03/19 12:25:41;;;;;;;20.25;9.20;;;;;;;10.01;24.10;101781.47;8459953;28;20402;-72
2022/03/19 12:29:43;;;;;;;27.45;11.13;;;;;;;10.03;24.13;101767.72;8459952;28;20054;-72
2022/03/19 12:33:45;;;;;;;25.63;12.43;;;;;;;10.14;24.53;101764.19;8457255;28;20489;-72
2022/03/19 12:37:50;;;;;;;29.17;12.93;;;;;;;10.23;25.75;101768.16;8454855;28;20505;-72
2022/03/19 12:41:50;;;;;;;26.48;13.07;;;;;;;10.54;26.00;101759.53;8455463;28;20048;-73
2022/03/19 12:45:52;;;;;;;27.63;12.68;;;;;;;10.69;25.76;101766.25;8458970;28;20055;-72
2022/03/19 12:49:54;;;;;;;27.40;13.15;;;;;;;10.68;25.46;101764.63;8431589;28;20098;-73
2022/03/19 12:53:55;;;;;;;32.33;13.05;;;;;;;10.74;25.47;101758.22;8426964;28;20048;-72
2022/03/19 12:57:57;;;;;;;32.72;14.77;;;;;;;10.57;25.68;101764.44;8448253;28;20079;-72
2022/03/19 13:01:59;;;;;;;33.38;15.32;;;;;;;10.44;26.00;101764.75;8419800;28;20896;-72
2022/03/19 13:06:00;;;;;;;31.90;14.85;;;;;;;10.44;25.18;101748.53;8439752;28;20040;-72
2022/03/19 13:10:01;;;;;;;28.95;13.68;;;;;;;10.45;25.43;101750.19;8446353;28;20051;-72
2022/03/19 13:14:02;;;;;;;28.98;13.90;;;;;;;10.54;24.99;101754.13;8442919;28;20035;-73
2022/03/19 13:18:03;;;;;;;29.80;14.77;;;;;;;10.49;25.40;101756.75;8402169;28;20566;-72
2022/03/19 13:22:05;;;;;;;33.65;16.63;;;;;;;10.58;25.75;101749.88;8445249;28;20051;-72
2022/03/19 13:26:09;;;;;;;27.40;14.48;;;;;;;10.99;25.17;101751.38;8434541;28;20051;-71
2022/03/19 13:30:12;;;;;;;31.27;15.10;;;;;;;11.80;24.17;101757.06;8448859;28;20134;-72
2022/03/19 13:34:21;;;;;;;43.53;18.67;;;;;;;12.87;23.09;101762.50;8449007;28;20173;-72
2022/03/19 13:38:24;;;;;;;29.45;15.05;;;;;;;13.84;22.94;101750.34;8450078;28;20080;-74
2022/03/19 13:42:33;;;;;;;31.80;17.02;;;;;;;14.93;22.35;101740.97;8449002;28;20048;-75
2022/03/19 13:46:34;;;;;;;37.50;16.38;;;;;;;15.96;21.35;101743.97;8380263;28;20061;-75
2022/03/19 13:50:41;;;;;;;33.72;15.85;;;;;;;16.87;19.78;101746.06;8366252;28;20548;-74
2022/03/19 13:54:46;;;;;;;31.27;16.33;;;;;;;17.68;18.89;101739.75;8375368;28;20052;-75
2022/03/19 13:59:01;;;;;;;28.23;15.63;;;;;;;17.83;18.01;101739.56;8382786;28;20144;-73
2022/03/19 14:03:08;;;;;;;26.73;14.73;;;;;;;18.35;18.10;101722.13;8349418;28;20132;-73
2022/03/19 14:07:10;;;;;;;31.27;15.53;;;;;;;18.68;17.34;101728.47;8357981;28;20297;-74
2022/03/19 14:11:12;;;;;;;30.95;15.60;;;;;;;18.77;17.36;101721.19;8374258;28;20090;-75
2022/03/19 14:15:18;;;;;;;31.73;16.38;;;;;;;18.49;16.67;101724.94;8386511;28;20051;-72
2022/03/19 14:19:19;;;;;;;30.02;16.05;;;;;;;18.27;16.55;101735.69;8461223;28;20096;-74
2022/03/19 14:23:20;;;;;;;27.10;15.13;;;;;;;18.43;16.55;101720.66;8461237;28;20054;-73
2022/03/19 14:27:22;;;;;;;29.35;13.75;;;;;;;18.43;16.33;101726.13;8464406;28;20048;-76
2022/03/19 14:31:24;;;;;;;24.65;13.70;;;;;;;17.98;16.26;101736.63;8462500;28;20057;-73
2022/03/19 14:36:05;;;;;;;27.60;13.88;;;;;;;18.34;15.94;101733.41;8462319;28;20039;-73
2022/03/19 14:40:06;;;;;;;24.20;13.63;;;;;;;19.01;15.90;101733.94;8358231;28;20049;-74
2022/03/19 14:44:07;;;;;;;27.65;14.30;;;;;;;19.07;15.58;101736.28;8359278;28;20049;-74
2022/03/19 14:48:08;;;;;;;24.00;14.05;;;;;;;19.39;15.28;101738.16;8358388;28;20045;-73
2022/03/19 14:52:09;;;;;;;22.05;13.27;;;;;;;19.08;15.35;101742.59;8299861;28;20076;-71
2022/03/19 14:56:11;;;;;;;23.27;12.88;;;;;;;18.92;15.30;101740.13;8358844;28;20056;-74
2022/03/19 15:00:13;;;;;;;30.00;15.43;;;;;;;19.14;15.42;101727.69;8290972;28;20085;-74
2022/03/19 15:04:14;;;;;;;23.00;13.43;;;;;;;19.80;15.40;101727.19;8274088;28;20092;-74
2022/03/19 15:08:17;;;;;;;29.92;15.45;;;;;;;19.76;15.45;101727.00;8286646;28;20065;-73
2022/03/19 15:12:18;;;;;;;27.15;14.02;;;;;;;19.61;15.65;101735.53;8317969;28;20384;-73
2022/03/19 15:16:21;;;;;;;29.85;14.02;;;;;;;19.59;15.69;101732.28;8384986;28;20048;-74
2022/03/19 15:20:23;;;;;;;30.67;14.20;;;;;;;18.14;16.89;101729.00;8387419;28;20049;-74
2022/03/19 15:24:24;;;;;;;27.50;13.75;;;;;;;18.12;16.03;101726.59;8386227;28;20045;-73
2022/03/19 15:28:26;;;;;;;26.95;13.50;;;;;;;17.63;16.79;101734.38;8384699;28;20420;-74
2022/03/19 15:32:31;;;;;;;20.20;11.82;;;;;;;17.54;16.00;101730.63;8423228;28;20067;-73
2022/03/19 15:36:33;;;;;;;25.10;12.55;;;;;;;15.53;17.49;101740.88;8457269;28;20473;-74
2022/03/19 15:40:34;;;;;;;42.97;20.30;;;;;;;14.09;18.54;101736.00;8459435;28;20044;-74
2022/03/19 15:44:35;;;;;;;26.70;12.93;;;;;;;13.38;19.60;101735.72;8422734;28;20059;-74
2022/03/19 15:48:36;;;;;;;29.23;12.88;;;;;;;12.38;20.79;101737.38;8459303;28;20150;-73
2022/03/19 15:52:38;;;;;;;22.23;11.88;;;;;;;11.87;21.10;101738.75;8440932;28;20050;-73
2022/03/19 15:56:39;;;;;;;28.27;13.95;;;;;;;11.53;21.73;101740.72;8460633;28;20478;-74
2022/03/19 16:00:40;;;;;;;26.63;13.90;;;;;;;11.32;21.98;101731.53;8460031;28;20165;-75
2022/03/19 16:04:41;;;;;;;28.88;14.27;;;;;;;10.95;22.62;101733.16;8459073;28;20035;-74
2022/03/19 16:08:42;;;;;;;30.13;13.77;;;;;;;10.64;23.47;101736.44;8458948;28;20440;-74
2022/03/19 16:12:45;;;;;;;33.92;16.48;;;;;;;10.36;24.08;101740.84;8460312;28;20058;-73
2022/03/19 16:16:46;;;;;;;30.67;14.25;;;;;;;10.12;24.53;101744.69;8460617;28;20390;-74
2022/03/19 16:20:47;;;;;;;25.08;12.85;;;;;;;9.88;25.09;101737.75;8424335;28;20074;-74
2022/03/19 16:24:48;;;;;;;29.25;14.25;;;;;;;9.56;25.89;101745.47;8461036;28;20126;-74
2022/03/19 16:28:49;;;;;;;43.63;23.35;;;;;;;9.32;26.17;101760.84;8441148;28;20104;-74
2022/03/19 16:32:52;;;;;;;49.35;23.05;;;;;;;9.14;26.18;101758.28;8459509;28;20050;-76
2022/03/19 16:36:54;;;;;;;64.68;30.08;;;;;;;8.85;26.66;101760.84;8457565;28;20505;-74
2022/03/19 16:40:55;;;;;;;32.28;15.73;;;;;;;8.63;26.72;101757.06;8455281;28;20063;-75
2022/03/19 16:44:56;;;;;;;29.92;14.57;;;;;;;8.44;26.96;101766.28;8459328;28;20501;-74
2022/03/19 16:48:57;;;;;;;34.83;14.55;;;;;;;8.25;27.39;101764.66;8458987;28;20100;-74
2022/03/19 16:52:59;;;;;;;28.90;13.65;;;;;;;8.01;27.93;101764.56;8456332;28;20051;-74
2022/03/19 16:57:00;;;;;;;26.08;12.90;;;;;;;7.78;28.66;101774.38;8439396;28;20069;-75
2022/03/19 17:01:01;;;;;;;30.52;14.18;;;;;;;7.55;28.98;101775.06;8410581;28;20299;-74
2022/03/19 17:05:05;;;;;;;29.63;13.88;;;;;;;7.36;29.12;101782.28;8375631;28;20052;-74
2022/03/19 17:09:07;;;;;;;29.63;14.25;;;;;;;7.20;29.56;101783.66;8389420;28;20497;-74
2022/03/19 17:13:09;;;;;;;28.77;13.98;;;;;;;7.04;30.05;101783.41;8355380;28;20060;-75
2022/03/19 17:17:10;;;;;;;28.90;14.45;;;;;;;6.83;29.75;101787.31;8354268;28;20448;-73
2022/03/19 17:21:13;;;;;;;31.23;15.15;;;;;;;6.77;29.89;101783.63;8391741;28;20052;-76
2022/03/19 17:25:14;;;;;;;37.05;18.65;;;;;;;6.63;30.27;101792.84;8387985;28;20046;-75
2022/03/19 17:29:16;;;;;;;33.67;17.65;;;;;;;6.46;30.52;101785.50;8395609;28;20040;-76
2022/03/19 17:33:17;;;;;;;34.70;17.35;;;;;;;6.34;31.09;101783.50;8395679;28;20497;-75
2022/03/19 17:37:18;;;;;;;36.03;16.25;;;;;;;6.20;31.04;101795.38;8395546;28;20057;-73
2022/03/19 17:41:19;;;;;;;30.65;14.48;;;;;;;6.05;31.15;101794.81;8386718;28;20419;-75
2022/03/19 17:45:21;;;;;;;34.67;15.57;;;;;;;5.96;31.24;101790.75;8394417;28;20052;-76
2022/03/19 17:49:22;;;;;;;35.53;16.65;;;;;;;5.95;31.15;101794.47;8389172;28;20048;-73
2022/03/19 17:53:25;;;;;;;50.60;23.35;;;;;;;5.82;31.26;101792.59;8379134;28;20136;-73
2022/03/19 17:57:26;;;;;;;34.22;16.60;;;;;;;5.78;31.24;101798.63;8374942;28;20114;-74
2022/03/19 18:01:28;;;;;;;52.00;25.30;;;;;;;5.73;31.60;101795.75;8397009;28;20060;-74
2022/03/19 18:05:29;;;;;;;41.55;17.80;;;;;;;5.60;31.94;101806.53;8395980;28;20462;-74
2022/03/19 18:09:33;;;;;;;41.25;17.65;;;;;;;5.44;32.18;101802.44;8397379;28;20101;-74
2022/03/19 18:13:33;;;;;;;41.03;17.65;;;;;;;5.33;32.23;101801.22;8397706;28;20051;-74
2022/03/19 18:17:38;;;;;;;37.47;15.63;;;;;;;5.30;32.00;101796.25;8396323;28;20044;-74
2022/03/19 18:21:39;;;;;;;31.50;14.77;;;;;;;5.25;32.37;101809.47;8379985;28;20469;-74
2022/03/19 18:25:41;;;;;;;36.50;14.63;;;;;;;5.20;32.23;101798.53;8397383;28;20067;-74
2022/03/19 18:29:42;;;;;;;34.78;14.70;;;;;;;5.15;32.58;101802.88;8411766;28;20057;-74
2022/03/19 18:33:43;;;;;;;31.02;14.30;;;;;;;5.14;32.58;101812.75;8396741;28;20473;-74
2022/03/19 18:37:44;;;;;;;39.67;17.90;;;;;;;5.09;32.58;101804.53;8394866;28;20474;-74